createdAt,value
2023-04-05T00:01:16.021Z,54318.28
2023-04-05T00:03:47.573Z,54346.13
2023-04-05T00:06:16.785Z,54306.34
2023-04-05T00:08:50.312Z,54310.34
2023-04-05T00:11:19.222Z,54306.34
2023-04-05T00:13:47.695Z,54336.19
2023-04-05T00:16:19.267Z,54330.22
2023-04-05T00:18:51.749Z,54326.25
2023-04-05T00:21:22.876Z,54334.19
2023-04-05T00:23:56.390Z,54338.16
2023-04-05T00:26:24.928Z,54375.94
2023-04-05T00:28:57.574Z,54336.19
2023-04-05T00:31:25.903Z,54358.06
2023-04-05T00:33:55.794Z,54366.00
2023-04-05T00:36:24.261Z,54383.91
2023-04-05T00:38:53.055Z,54391.84
2023-04-05T00:41:21.378Z,54391.84
2023-04-05T00:43:49.941Z,54405.78
2023-04-05T00:46:18.353Z,54443.56
2023-04-05T00:48:47.234Z,54401.81
2023-04-05T00:51:17.432Z,54407.78
2023-04-05T00:53:46.213Z,54409.75
2023-04-05T00:56:16.899Z,54429.66
2023-04-05T00:58:45.347Z,54421.69
2023-04-05T01:01:18.591Z,54417.72
2023-04-05T01:03:54.074Z,54443.56
2023-04-05T01:07:00.989Z,54451.53
2023-04-05T01:09:39.961Z,54473.41
2023-04-05T01:12:11.458Z,54447.53
2023-04-05T01:14:47.954Z,54373.97
2023-04-05T01:17:16.532Z,54354.06
2023-04-05T01:19:48.310Z,54371.97
2023-04-05T01:22:52.461Z,54385.91
2023-04-05T01:25:50.380Z,54417.72
2023-04-05T01:28:49.512Z,54409.75
2023-04-05T01:31:27.560Z,54427.66
2023-04-05T01:34:03.369Z,54443.56
2023-04-05T01:36:38.351Z,54445.56
2023-04-05T01:39:09.712Z,54441.56
2023-04-05T01:41:40.131Z,54439.59
2023-04-05T01:44:08.825Z,54437.59
2023-04-05T01:46:38.689Z,54461.47
2023-04-05T01:49:07.313Z,54457.47
2023-04-05T01:51:42.155Z,54503.22
2023-04-05T01:54:11.017Z,54505.22
2023-04-05T01:56:39.361Z,54509.19
2023-04-05T01:59:07.960Z,54505.22
2023-04-05T02:01:36.722Z,54548.97
2023-04-05T02:04:06.574Z,54467.44
2023-04-05T02:06:34.942Z,54491.28
2023-04-05T02:09:03.603Z,54495.28
2023-04-05T02:11:32.099Z,54533.06
2023-04-05T02:14:01.119Z,54544.97
2023-04-05T02:16:33.211Z,54541.00
2023-04-05T02:19:02.447Z,54568.84
2023-04-05T02:21:32.381Z,54544.97
2023-04-05T02:24:01.050Z,54533.06
2023-04-05T02:26:29.429Z,54556.91
2023-04-05T02:28:59.279Z,54586.75
2023-04-05T02:31:27.702Z,54574.81
2023-04-05T02:33:56.206Z,54588.75
2023-04-05T02:36:28.384Z,54578.78
2023-04-05T02:38:58.221Z,54616.56
2023-04-05T02:41:27.120Z,54566.84
2023-04-05T02:43:55.653Z,54568.84
2023-04-05T02:46:24.124Z,54546.97
2023-04-05T02:48:52.630Z,54614.59
2023-04-05T02:51:21.351Z,54630.50
2023-04-05T02:53:49.701Z,54640.44
2023-04-05T02:56:19.612Z,54628.50
2023-04-05T02:58:49.949Z,54670.28
2023-04-05T03:01:24.053Z,54620.56
2023-04-05T03:03:52.542Z,54616.56
2023-04-05T03:06:22.541Z,54640.44
2023-04-05T03:08:53.966Z,54672.25
2023-04-05T03:11:26.972Z,54640.44
2023-04-05T03:13:59.280Z,54658.34
2023-04-05T03:16:40.118Z,54684.19
2023-04-05T03:19:18.933Z,54698.13
2023-04-05T03:21:48.504Z,54634.47
2023-04-05T03:24:37.406Z,54680.22
2023-04-05T03:27:10.532Z,54698.13
2023-04-05T03:29:59.349Z,54747.84
2023-04-05T03:32:28.244Z,54706.06
2023-04-05T03:35:04.327Z,54684.19
2023-04-05T03:37:34.425Z,54747.84
2023-04-05T03:40:10.717Z,54787.63
2023-04-05T03:42:40.662Z,54751.81
2023-04-05T03:45:12.424Z,54759.78
2023-04-05T03:47:41.182Z,54710.06
2023-04-05T03:50:10.617Z,54731.94
2023-04-05T03:52:39.110Z,54716.00
2023-04-05T03:55:08.151Z,54753.81
2023-04-05T03:57:40.780Z,54747.84
2023-04-05T04:00:29.752Z,54785.63
2023-04-05T04:03:26.176Z,54773.69
2023-04-05T04:05:55.282Z,54775.69
2023-04-05T04:08:23.910Z,54735.91
2023-04-05T04:10:52.271Z,54777.66
2023-04-05T04:13:27.785Z,54759.78
2023-04-05T04:16:18.300Z,54755.78
2023-04-05T04:18:46.740Z,54765.72
2023-04-05T04:21:39.710Z,54777.66
2023-04-05T04:24:34.777Z,54775.69
2023-04-05T04:27:11.458Z,54789.59
2023-04-05T04:30:01.977Z,54783.63
2023-04-05T04:32:55.218Z,54785.63
2023-04-05T04:35:42.773Z,54797.56
2023-04-05T04:38:30.202Z,54867.16
2023-04-05T04:41:17.828Z,54819.44
2023-04-05T04:44:14.934Z,54823.41
2023-04-05T04:47:17.595Z,54873.13
2023-04-05T04:49:59.813Z,54823.41
2023-04-05T04:52:29.831Z,54843.28
2023-04-05T04:54:58.228Z,54841.31
2023-04-05T04:57:27.245Z,54897.00
2023-04-05T04:59:56.277Z,54859.22
2023-04-05T05:02:27.463Z,54859.22
2023-04-05T05:04:57.179Z,54843.28
2023-04-05T05:07:25.970Z,54825.41
2023-04-05T05:09:54.550Z,54883.06
2023-04-05T05:12:22.956Z,54853.25
2023-04-05T05:14:51.384Z,54879.09
2023-04-05T05:17:23.503Z,54930.81
2023-04-05T05:19:55.257Z,54916.88
2023-04-05T05:22:24.932Z,54859.22
2023-04-05T05:24:53.344Z,54853.25
2023-04-05T05:27:22.289Z,54851.25
2023-04-05T05:29:50.840Z,54833.34
2023-04-05T05:32:19.467Z,54801.53
2023-04-05T05:34:48.808Z,54817.44
2023-04-05T05:37:19.254Z,54914.91
2023-04-05T05:39:47.908Z,55010.38
2023-04-05T05:42:16.388Z,55014.34
2023-04-05T05:44:45.043Z,55022.31
2023-04-05T05:47:13.549Z,54934.78
2023-04-05T05:49:42.115Z,54944.72
2023-04-05T05:52:10.801Z,55020.31
2023-04-05T05:54:41.020Z,55042.19
2023-04-05T05:57:09.367Z,55087.94
2023-04-05T05:59:38.012Z,55165.50
2023-04-05T06:02:06.584Z,55193.34
2023-04-05T06:04:35.735Z,55241.09
2023-04-05T06:07:04.238Z,55296.78
2023-04-05T06:09:34.069Z,55356.47
2023-04-05T06:12:04.119Z,55352.47
2023-04-05T06:14:32.460Z,55296.78
2023-04-05T06:17:00.917Z,55318.66
2023-04-05T06:19:29.595Z,55394.25
2023-04-05T06:21:57.981Z,55394.25
2023-04-05T06:24:26.603Z,55432.06
2023-04-05T06:26:54.984Z,55406.19
2023-04-05T06:29:24.793Z,55404.19
2023-04-05T06:31:53.141Z,55467.84
2023-04-05T06:34:21.643Z,55449.94
2023-04-05T06:36:50.208Z,55469.84
2023-04-05T06:39:18.837Z,55461.88
2023-04-05T06:41:47.174Z,55442.00
2023-04-05T06:44:15.577Z,55521.56
2023-04-05T06:46:45.417Z,55485.75
2023-04-05T06:49:13.879Z,55501.66
2023-04-05T06:51:42.276Z,55408.19
2023-04-05T06:54:10.879Z,55332.59
2023-04-05T06:56:39.203Z,55362.44
2023-04-05T06:59:07.634Z,55527.53
2023-04-05T07:01:36.366Z,55414.16
2023-04-05T07:04:06.328Z,55328.63
2023-04-05T07:06:39.104Z,55336.56
2023-04-05T07:09:10.517Z,55310.72
2023-04-05T07:11:40.123Z,55360.44
2023-04-05T07:14:08.577Z,55259.00
2023-04-05T07:16:36.942Z,55272.91
2023-04-05T07:19:07.335Z,55149.59
2023-04-05T07:21:35.762Z,55008.38
2023-04-05T07:24:04.125Z,54966.59
2023-04-05T07:26:35.086Z,54819.44
2023-04-05T07:29:04.282Z,54741.88
2023-04-05T07:31:32.680Z,54712.03
2023-04-05T07:34:01.287Z,54749.81
2023-04-05T07:36:31.484Z,54664.31
2023-04-05T07:39:00.034Z,54588.75
2023-04-05T07:41:31.984Z,54578.78
2023-04-05T07:44:00.547Z,54471.41
2023-04-05T07:46:30.069Z,54455.50
2023-04-05T07:48:58.589Z,54230.78
2023-04-05T07:51:27.498Z,54246.69
2023-04-05T07:53:57.205Z,54312.31
2023-04-05T07:56:25.757Z,54320.28
2023-04-05T07:58:55.122Z,54314.31
2023-04-05T08:01:27.733Z,54332.19
2023-04-05T08:03:57.585Z,54330.22
2023-04-05T08:06:27.396Z,54248.69
2023-04-05T08:08:57.178Z,54270.56
2023-04-05T08:11:26.223Z,54232.78
2023-04-05T08:13:55.167Z,54222.84
2023-04-05T08:16:23.566Z,54181.06
2023-04-05T08:18:52.034Z,54143.28
2023-04-05T08:21:20.877Z,54151.25
2023-04-05T08:23:50.222Z,54139.31
2023-04-05T08:26:19.973Z,54135.34
2023-04-05T08:28:48.421Z,54067.75
2023-04-05T08:31:16.779Z,54085.63
2023-04-05T08:33:45.334Z,54039.91
2023-04-05T08:36:13.677Z,54055.81
2023-04-05T08:38:42.105Z,54027.97
2023-04-05T08:41:18.520Z,54014.06
2023-04-05T08:43:57.630Z,53992.19
2023-04-05T08:46:27.437Z,54024.00
2023-04-05T08:48:56.426Z,53962.34
2023-04-05T08:51:26.332Z,53928.56
2023-04-05T08:53:55.500Z,53952.41
2023-04-05T08:56:27.428Z,53936.50
2023-04-05T08:59:03.378Z,53954.41
2023-04-05T09:01:33.931Z,53934.50
2023-04-05T09:04:06.849Z,53912.66
2023-04-05T09:06:37.598Z,53892.75
2023-04-05T09:09:09.484Z,53908.66
2023-04-05T09:11:37.902Z,53916.63
2023-04-05T09:14:08.425Z,53884.81
2023-04-05T09:16:39.502Z,53890.78
2023-04-05T09:19:08.148Z,53872.88
2023-04-05T09:22:04.323Z,53866.91
2023-04-05T09:24:41.730Z,53878.84
2023-04-05T09:27:11.806Z,53896.75
2023-04-05T09:29:43.545Z,53854.97
2023-04-05T09:32:15.140Z,53851.00
2023-04-05T09:34:44.858Z,53858.97
2023-04-05T09:37:33.954Z,53829.13
2023-04-05T09:40:04.760Z,53839.06
2023-04-05T09:42:45.016Z,53805.28
2023-04-05T09:45:15.913Z,53849.03
2023-04-05T09:47:58.546Z,53837.09
2023-04-05T09:50:27.409Z,53789.38
2023-04-05T09:53:08.693Z,53781.41
2023-04-05T09:55:38.263Z,53777.44
2023-04-05T09:58:06.830Z,53797.31
2023-04-05T10:00:38.085Z,53801.31
2023-04-05T10:03:06.855Z,53769.50
2023-04-05T10:05:35.541Z,53779.44
2023-04-05T10:08:06.984Z,53761.53
2023-04-05T10:10:47.021Z,53735.69
2023-04-05T10:13:17.234Z,53767.50
2023-04-05T10:15:51.412Z,53787.38
2023-04-05T10:18:23.212Z,53769.50
2023-04-05T10:20:52.679Z,53727.75
2023-04-05T10:23:26.638Z,53757.56
2023-04-05T10:26:07.468Z,53745.63
2023-04-05T10:28:38.287Z,53741.66
2023-04-05T10:31:16.943Z,53745.63
2023-04-05T10:34:00.384Z,53747.63
2023-04-05T10:36:40.432Z,53725.75
2023-04-05T10:39:24.573Z,53715.81
2023-04-05T10:41:58.051Z,53717.78
2023-04-05T10:44:27.146Z,53729.72
2023-04-05T10:46:59.063Z,53711.84
2023-04-05T10:49:35.717Z,53713.81
2023-04-05T10:52:05.079Z,53697.91
2023-04-05T10:54:37.244Z,53727.75
2023-04-05T10:57:09.717Z,53676.03
2023-04-05T10:59:45.785Z,53686.00
2023-04-05T11:02:16.416Z,53699.91
2023-04-05T11:04:45.266Z,53697.91
2023-04-05T11:07:15.794Z,53719.78
2023-04-05T11:09:57.696Z,53680.03
2023-04-05T11:13:06.252Z,53689.97
2023-04-05T11:15:36.196Z,53674.06
2023-04-05T11:18:08.994Z,53666.09
2023-04-05T11:20:52.098Z,53678.03
2023-04-05T11:23:23.066Z,53654.19
2023-04-05T11:25:53.100Z,53638.28
2023-04-05T11:28:26.134Z,53618.38
2023-04-05T11:30:57.224Z,53640.25
2023-04-05T11:33:56.728Z,53608.44
2023-04-05T11:36:35.051Z,53638.28
2023-04-05T11:39:28.462Z,53634.28
2023-04-05T11:42:03.972Z,53640.25
2023-04-05T11:44:43.353Z,53618.38
2023-04-05T11:47:12.224Z,53632.31
2023-04-05T11:49:43.391Z,53620.38
2023-04-05T11:52:15.985Z,53580.63
2023-04-05T11:54:49.484Z,53608.44
2023-04-05T11:57:21.456Z,53606.47
2023-04-05T11:59:51.720Z,53614.41
2023-04-05T12:02:21.196Z,53618.38
2023-04-05T12:04:57.639Z,53578.63
2023-04-05T12:07:29.606Z,53602.47
2023-04-05T12:10:07.275Z,53592.53
2023-04-05T12:12:38.292Z,53604.47
2023-04-05T12:15:09.483Z,53594.53
2023-04-05T12:17:46.547Z,53576.63
2023-04-05T12:20:19.453Z,53554.78
2023-04-05T12:22:50.004Z,53574.66
2023-04-05T12:25:19.482Z,53532.91
2023-04-05T12:27:48.517Z,53520.97
2023-04-05T12:30:18.515Z,53558.75
2023-04-05T12:32:48.885Z,53540.84
2023-04-05T12:35:19.955Z,53518.97
2023-04-05T12:37:48.657Z,53515.00
2023-04-05T12:40:22.155Z,53487.19
2023-04-05T12:42:50.764Z,53431.50
2023-04-05T12:45:19.619Z,53417.59
2023-04-05T12:47:53.834Z,53403.69
2023-04-05T12:50:29.083Z,53371.88
2023-04-05T12:52:59.334Z,53411.63
2023-04-05T12:55:29.691Z,53391.75
2023-04-05T12:58:00.926Z,53387.78
2023-04-05T13:00:31.076Z,53379.81
2023-04-05T13:03:01.099Z,53363.91
2023-04-05T13:05:31.836Z,53369.88
2023-04-05T13:08:00.624Z,53367.91
2023-04-05T13:10:29.143Z,53340.06
2023-04-05T13:12:57.931Z,53344.03
2023-04-05T13:15:27.339Z,53328.13
2023-04-05T13:17:55.941Z,53350.00
2023-04-05T13:20:24.805Z,53314.22
2023-04-05T13:22:54.937Z,53306.28
2023-04-05T13:25:23.688Z,53294.34
2023-04-05T13:27:52.601Z,53302.28
2023-04-05T13:30:21.786Z,53296.31
2023-04-05T13:32:50.516Z,53290.38
2023-04-05T13:35:19.222Z,53306.28
2023-04-05T13:37:47.784Z,53286.38
2023-04-05T13:40:17.986Z,53276.44
2023-04-05T13:42:46.804Z,53290.38
2023-04-05T13:45:15.620Z,53272.47
2023-04-05T13:47:44.587Z,53288.38
2023-04-05T13:50:13.195Z,53300.31
2023-04-05T13:52:41.674Z,53308.25
2023-04-05T13:55:10.241Z,53310.25
2023-04-05T13:57:40.154Z,53342.06
2023-04-05T14:00:10.014Z,53322.16
2023-04-05T14:02:42.084Z,53336.09
2023-04-05T14:05:11.192Z,53316.22
2023-04-05T14:07:40.022Z,53346.03
2023-04-05T14:10:10.347Z,53344.03
2023-04-05T14:12:40.690Z,53371.88
2023-04-05T14:15:10.124Z,53363.91
2023-04-05T14:17:38.901Z,53344.03
2023-04-05T14:20:08.877Z,53352.00
2023-04-05T14:22:37.343Z,53352.00
2023-04-05T14:25:08.219Z,53367.91
2023-04-05T14:27:41.638Z,53336.09
2023-04-05T14:30:13.025Z,53340.06
2023-04-05T14:32:41.718Z,53361.94
2023-04-05T14:35:11.064Z,53338.06
2023-04-05T14:37:39.774Z,53353.97
2023-04-05T14:40:09.262Z,53352.00
2023-04-05T14:42:48.636Z,53393.75
2023-04-05T14:45:19.859Z,53407.66
2023-04-05T14:47:48.985Z,53411.63
2023-04-05T14:50:17.949Z,53423.56
2023-04-05T14:52:46.724Z,53399.69
2023-04-05T14:55:16.670Z,53399.69
2023-04-05T14:57:45.657Z,53411.63
2023-04-05T15:00:15.588Z,53415.59
2023-04-05T15:02:46.849Z,53441.44
2023-04-05T15:05:15.727Z,53467.28
2023-04-05T15:07:44.377Z,53487.19
2023-04-05T15:10:13.045Z,53467.28
2023-04-05T15:12:41.681Z,53453.38
2023-04-05T15:15:10.634Z,53483.19
2023-04-05T15:17:39.333Z,53441.44
2023-04-05T15:20:10.458Z,53451.38
2023-04-05T15:22:41.007Z,53423.56
2023-04-05T15:25:10.531Z,53463.31
2023-04-05T15:27:39.001Z,53447.41
2023-04-05T15:30:09.250Z,53425.53
2023-04-05T15:32:38.428Z,53435.47
2023-04-05T15:35:09.493Z,53429.53
2023-04-05T15:37:39.277Z,53439.47
2023-04-05T15:40:09.279Z,53471.28
2023-04-05T15:42:37.954Z,53455.38
2023-04-05T15:45:07.545Z,53455.38
2023-04-05T15:47:36.258Z,53481.22
2023-04-05T15:50:05.524Z,53467.28
2023-04-05T15:52:36.687Z,53467.28
2023-04-05T15:55:06.044Z,53479.22
2023-04-05T15:57:34.795Z,53459.34
2023-04-05T16:00:03.543Z,53479.22
2023-04-05T16:02:33.411Z,53439.47
2023-04-05T16:05:02.125Z,53457.34
2023-04-05T16:07:31.381Z,53475.25
2023-04-05T16:10:01.501Z,53459.34
2023-04-05T16:12:30.003Z,53503.06
2023-04-05T16:14:58.472Z,53457.34
2023-04-05T16:17:28.081Z,53467.28
2023-04-05T16:19:57.291Z,53501.09
2023-04-05T16:22:26.077Z,53487.19
2023-04-05T16:24:54.579Z,53487.19
2023-04-05T16:27:24.572Z,53518.97
2023-04-05T16:29:53.329Z,53499.09
2023-04-05T16:32:22.210Z,53507.06
2023-04-05T16:34:50.945Z,53479.22
2023-04-05T16:37:20.777Z,53503.06
2023-04-05T16:39:49.611Z,53524.94
2023-04-05T16:42:18.151Z,53501.09
2023-04-05T16:44:48.317Z,53489.16
2023-04-05T16:47:17.105Z,53518.97
2023-04-05T16:49:45.758Z,53503.06
2023-04-05T16:52:14.641Z,53491.16
2023-04-05T16:54:43.291Z,53515.00
2023-04-05T16:57:11.944Z,53487.19
2023-04-05T16:59:41.247Z,53560.72
2023-04-05T17:02:11.500Z,53522.97
2023-04-05T17:04:40.050Z,53550.78
2023-04-05T17:07:08.653Z,53548.81
2023-04-05T17:09:37.547Z,53550.78
2023-04-05T17:12:06.690Z,53556.75
2023-04-05T17:14:35.554Z,53562.72
2023-04-05T17:17:04.196Z,53562.72
2023-04-05T17:19:34.129Z,53598.50
2023-04-05T17:22:03.258Z,53568.69
2023-04-05T17:24:36.300Z,53572.66
2023-04-05T17:27:05.379Z,53598.50
2023-04-05T17:29:37.064Z,53596.53
2023-04-05T17:32:05.781Z,53606.47
2023-04-05T17:34:35.871Z,53586.56
2023-04-05T17:37:04.503Z,53610.44
2023-04-05T17:39:33.114Z,53598.50
2023-04-05T17:42:01.846Z,53606.47
2023-04-05T17:44:30.776Z,53594.53
2023-04-05T17:47:08.616Z,53656.16
2023-04-05T17:49:39.411Z,53630.31
2023-04-05T17:52:08.954Z,53662.13
2023-04-05T17:54:38.121Z,53666.09
2023-04-05T17:57:06.738Z,53664.13
2023-04-05T17:59:36.801Z,53666.09
2023-04-05T18:02:05.543Z,53680.03
2023-04-05T18:04:34.157Z,53672.06
2023-04-05T18:07:04.198Z,53680.03
2023-04-05T18:09:33.479Z,53689.97
2023-04-05T18:12:02.528Z,53678.03
2023-04-05T18:14:31.554Z,53705.88
2023-04-05T18:17:00.562Z,53691.94
2023-04-05T18:19:29.516Z,53737.69
2023-04-05T18:21:58.143Z,53721.78
2023-04-05T18:24:29.569Z,53725.75
2023-04-05T18:26:58.455Z,53735.69
2023-04-05T18:29:30.858Z,53745.63
2023-04-05T18:31:59.666Z,53753.59
2023-04-05T18:34:28.219Z,53759.56
2023-04-05T18:36:56.708Z,53765.50
2023-04-05T18:39:27.448Z,53757.56
2023-04-05T18:41:58.417Z,53771.47
2023-04-05T18:44:27.138Z,53793.34
2023-04-05T18:46:57.113Z,53821.19
2023-04-05T18:49:26.000Z,53817.22
2023-04-05T18:51:55.928Z,53845.03
2023-04-05T18:54:25.115Z,53785.41
2023-04-05T18:56:53.742Z,53868.91
2023-04-05T18:59:23.794Z,53837.09
2023-04-05T19:01:52.450Z,53851.00
2023-04-05T19:04:23.150Z,53843.06
2023-04-05T19:06:51.763Z,53854.97
2023-04-05T19:09:22.253Z,53821.19
2023-04-05T19:11:53.869Z,53856.97
2023-04-05T19:14:23.919Z,53851.00
2023-04-05T19:16:52.483Z,53858.97
2023-04-05T19:19:21.113Z,53851.00
2023-04-05T19:21:49.887Z,53837.09
2023-04-05T19:24:18.590Z,53878.84
2023-04-05T19:26:47.501Z,53864.94
2023-04-05T19:29:17.595Z,53874.88
2023-04-05T19:31:48.699Z,53878.84
2023-04-05T19:34:17.232Z,53880.84
2023-04-05T19:36:45.951Z,53894.75
2023-04-05T19:39:14.600Z,53888.78
2023-04-05T19:41:43.114Z,53876.84
2023-04-05T19:44:13.129Z,53908.66
2023-04-05T19:46:42.207Z,53954.41
2023-04-05T19:49:14.335Z,53908.66
2023-04-05T19:51:43.965Z,53932.53
2023-04-05T19:54:15.045Z,53948.44
2023-04-05T19:56:43.844Z,53944.47
2023-04-05T19:59:29.969Z,53900.72
2023-04-05T20:02:00.289Z,53914.63
2023-04-05T20:04:34.524Z,53950.44
2023-04-05T20:07:03.991Z,53916.63
2023-04-05T20:09:34.231Z,53940.47
2023-04-05T20:12:05.718Z,53974.28
2023-04-05T20:14:41.387Z,53976.28
2023-04-05T20:17:12.390Z,53952.41
2023-04-05T20:19:55.983Z,53988.19
2023-04-05T20:22:24.814Z,53986.22
2023-04-05T20:24:53.483Z,53968.31
2023-04-05T20:27:22.573Z,54002.13
2023-04-05T20:29:52.571Z,53996.16
2023-04-05T20:32:22.387Z,54000.13
2023-04-05T20:34:52.523Z,53978.25
2023-04-05T20:37:21.086Z,54031.94
2023-04-05T20:39:50.580Z,54018.03
2023-04-05T20:42:19.088Z,54002.13
2023-04-05T20:44:48.156Z,54008.09
2023-04-05T20:47:16.772Z,54031.94
2023-04-05T20:49:47.652Z,54027.97
2023-04-05T20:52:18.232Z,54037.91
2023-04-05T20:54:49.885Z,54035.91
2023-04-05T20:57:18.443Z,54051.81
2023-04-05T20:59:47.454Z,54061.78
2023-04-05T21:02:16.224Z,54091.59
2023-04-05T21:04:45.651Z,54035.91
2023-04-05T21:07:14.197Z,54055.81
2023-04-05T21:09:44.268Z,54081.66
2023-04-05T21:12:13.198Z,54087.63
2023-04-05T21:14:41.755Z,54071.72
2023-04-05T21:17:10.259Z,54069.72
2023-04-05T21:19:38.834Z,54075.69
2023-04-05T21:22:07.335Z,54071.72
2023-04-05T21:24:36.220Z,54093.59
2023-04-05T21:27:06.297Z,54107.50
2023-04-05T21:29:34.722Z,54075.69
2023-04-05T21:32:03.307Z,54107.50
2023-04-05T21:34:31.837Z,54139.31
2023-04-05T21:37:00.382Z,54123.41
2023-04-05T21:39:28.802Z,54107.50
2023-04-05T21:41:57.350Z,54115.47
2023-04-05T21:44:27.244Z,54135.34
2023-04-05T21:46:57.418Z,54151.25
2023-04-05T21:49:25.890Z,54117.44
2023-04-05T21:51:54.326Z,54145.28
2023-04-05T21:54:22.744Z,54147.28
2023-04-05T21:56:51.662Z,54141.31
2023-04-05T21:59:20.312Z,54135.34
2023-04-05T22:01:50.306Z,54151.25
2023-04-05T22:04:18.761Z,54163.19
2023-04-05T22:06:47.396Z,54171.13
2023-04-05T22:09:15.967Z,54183.06
2023-04-05T22:11:44.901Z,54210.91
2023-04-05T22:14:13.535Z,54198.97
2023-04-05T22:16:42.049Z,54179.09
2023-04-05T22:19:12.534Z,54193.00
2023-04-05T22:21:41.432Z,54208.91
2023-04-05T22:24:10.605Z,54202.94
2023-04-05T22:26:39.835Z,54198.97
2023-04-05T22:29:08.786Z,54216.88
2023-04-05T22:31:37.572Z,54254.66
2023-04-05T22:34:05.979Z,54218.84
2023-04-05T22:36:35.927Z,54246.69
2023-04-05T22:39:04.467Z,54206.94
2023-04-05T22:41:32.988Z,54252.66
2023-04-05T22:44:01.357Z,54282.50
2023-04-05T22:46:29.939Z,54276.53
2023-04-05T22:48:58.814Z,54260.63
2023-04-05T22:51:27.324Z,54280.50
2023-04-05T22:53:57.180Z,54296.41
2023-04-05T22:56:25.886Z,54300.38
2023-04-05T22:58:54.345Z,54302.38
2023-04-05T23:01:22.795Z,54318.28
2023-04-05T23:03:51.406Z,54338.16
2023-04-05T23:06:19.890Z,54284.47
2023-04-05T23:08:48.222Z,54310.34
2023-04-05T23:11:18.222Z,54373.97
2023-04-05T23:13:46.673Z,54362.03
2023-04-05T23:16:15.183Z,54375.94
2023-04-05T23:18:44.255Z,54401.81
2023-04-05T23:21:12.590Z,54393.84
2023-04-05T23:23:41.307Z,54381.91
2023-04-05T23:26:09.810Z,54399.81
2023-04-05T23:28:39.530Z,54389.88
2023-04-05T23:31:07.911Z,54389.88
2023-04-05T23:33:36.386Z,54377.94
2023-04-05T23:36:05.216Z,54377.94
2023-04-05T23:38:33.653Z,54385.91
2023-04-05T23:41:01.962Z,54413.72
2023-04-05T23:43:30.359Z,54401.81
2023-04-05T23:46:00.481Z,54447.53
2023-04-05T23:48:28.973Z,54459.47
2023-04-05T23:50:57.446Z,54415.72
2023-04-05T23:53:25.939Z,54425.66
2023-04-05T23:55:56.883Z,54413.72
2023-04-05T23:58:25.551Z,54425.66
